Keszthely, Hungary
Current Conditions -  °F | °C
As of 5:45 PM on Friday 31 Oct 2014 (Local Time) from LHSM Reporting Station
Broken Clouds Broken Clouds  
Wind Chill: 50°   Ceiling: 4000
Heat Index: 50°   Visibility: 5mi
Dew Point: 45°   Wind: 2mph
Humidity: 82%   Direction: 280°W
Pressure: 30.36"   Gusts: NA
Location:  46.77°N, 17.24°E
Report Text: LHSM 311545Z 28002KT 8000 BKN040 10/07 Q1028 NOSIG
Loading
Personal Weather Stations






























Interactive Weather Map
Tropical Storm Tracking
New forecast layout! Learn more

10-Day Weather Forecast

Advertisements
Track Severe Weather on mobile